Time;durP1;ratioP1;P1;durP2;ratioP2;P2;SDS_P1;SDS_P2;PMS_P1;PMS_P2;Temp;Humidity;BMP_temperature;BMP_pressure;BME280_temperature;BME280_humidity;BME280_pressure;Samples;Min_cycle;Max_cycle;Signal;HPM_P1;HPM_P2
2021/03/26 00:01:44;;;;;;;19.70;8.90;;;9.50;92.80;;;;;;10292885;28;20050;-61
2021/03/26 00:06:47;;;;;;;18.03;9.00;;;9.40;93.90;;;;;;10293947;28;20472;-62
2021/03/26 00:11:50;;;;;;;17.40;8.43;;;9.40;94.30;;;;;;10294372;28;20112;-62
2021/03/26 00:16:51;;;;;;;13.38;8.57;;;9.40;94.90;;;;;;10307826;28;20077;-61
2021/03/26 00:21:52;;;;;;;15.32;9.20;;;9.30;95.20;;;;;;10289257;28;20477;-62
2021/03/26 00:26:54;;;;;;;19.05;8.40;;;9.20;95.60;;;;;;10301711;28;20050;-62
2021/03/26 00:31:55;;;;;;;18.77;8.68;;;9.10;96.10;;;;;;10315648;28;20136;-62
2021/03/26 00:36:56;;;;;;;16.50;8.10;;;9.10;96.70;;;;;;10302820;28;20060;-62
2021/03/26 00:41:57;;;;;;;16.90;9.27;;;8.90;97.70;;;;;;10309682;28;20046;-62
2021/03/26 00:46:59;;;;;;;17.98;9.70;;;8.80;98.30;;;;;;10318239;28;20062;-61
2021/03/26 00:52:00;;;;;;;19.73;9.68;;;8.80;99.00;;;;;;10307838;28;20057;-62
2021/03/26 00:57:02;;;;;;;24.60;9.70;;;8.90;99.80;;;;;;10318408;28;20241;-62
2021/03/26 01:02:19;;;;;;;19.83;11.02;;;8.80;99.90;;;;;;10317729;28;20354;-61
2021/03/26 01:07:21;;;;;;;22.55;9.98;;;8.90;99.90;;;;;;10320976;28;20046;-62
2021/03/26 01:12:22;;;;;;;26.15;10.85;;;8.90;99.90;;;;;;10314668;28;20073;-62
2021/03/26 01:17:26;;;;;;;23.70;9.18;;;8.90;99.90;;;;;;10319702;28;20420;-62
2021/03/26 01:22:27;;;;;;;27.23;10.40;;;8.90;99.90;;;;;;10320360;28;20658;-62
2021/03/26 01:27:29;;;;;;;20.25;9.43;;;9.00;99.90;;;;;;10318112;28;20069;-62
2021/03/26 01:32:36;;;;;;;23.50;10.60;;;9.00;99.90;;;;;;10313437;28;20551;-62
2021/03/26 01:37:37;;;;;;;20.35;10.48;;;9.00;99.90;;;;;;10302130;28;20057;-63
2021/03/26 01:42:40;;;;;;;20.48;9.60;;;9.10;99.90;;;;;;10324761;28;20046;-62
2021/03/26 01:47:41;;;;;;;20.67;9.18;;;9.10;99.90;;;;;;10305260;28;20440;-62
2021/03/26 01:52:43;;;;;;;21.10;10.15;;;9.10;99.90;;;;;;10302286;28;20053;-62
2021/03/26 01:57:44;;;;;;;24.17;10.55;;;9.10;99.90;;;;;;10316027;28;20050;-61
2021/03/26 02:03:05;;;;;;;18.60;8.88;;;9.10;99.90;;;;;;10304610;28;20057;-62
2021/03/26 02:08:07;;;;;;;23.17;9.70;;;9.10;99.90;;;;;;10299131;28;20133;-62
2021/03/26 02:13:14;;;;;;;18.08;9.57;;;9.10;99.90;;;;;;10313422;28;20042;-62
2021/03/26 02:18:22;;;;;;;25.85;9.32;;;9.10;99.90;;;;;;10311260;28;20054;-61
2021/03/26 02:23:25;;;;;;;;;;;9.00;99.90;;;;;;10294451;28;20564;-61
2021/03/26 02:28:26;;;;;;;21.40;10.52;;;9.10;99.90;;;;;;10315684;28;19929;-62
2021/03/26 02:33:28;;;;;;;23.73;8.48;;;9.00;99.90;;;;;;10306330;28;20652;-62
2021/03/26 02:38:32;;;;;;;16.90;7.85;;;8.90;99.90;;;;;;10307915;28;20401;-62
2021/03/26 02:43:34;;;;;;;17.92;6.47;;;8.90;99.90;;;;;;10303987;28;20050;-62
2021/03/26 02:49:01;;;;;;;16.90;7.35;;;8.80;99.90;;;;;;10312540;28;20133;-62
2021/03/26 02:54:17;;;;;;;16.80;6.93;;;8.80;99.90;;;;;;10238106;28;20081;-61
2021/03/26 02:59:32;;;;;;;21.23;6.57;;;8.80;99.90;;;;;;10310822;28;20100;-62
2021/03/26 03:04:44;;;;;;;18.83;7.30;;;8.70;99.90;;;;;;10289237;28;20477;-61
2021/03/26 03:09:50;;;;;;;14.32;5.65;;;8.70;99.90;;;;;;10309582;28;20056;-61
2021/03/26 03:14:59;;;;;;;12.07;6.10;;;8.70;99.90;;;;;;10297839;28;20050;-62
2021/03/26 03:20:15;;;;;;;13.73;6.00;;;8.70;99.90;;;;;;10317754;28;20045;-62
2021/03/26 03:25:20;;;;;;;13.68;5.72;;;8.60;99.90;;;;;;10315650;28;20050;-62
2021/03/26 03:30:47;;;;;;;13.25;5.40;;;8.50;99.90;;;;;;10315268;28;20050;-61
2021/03/26 03:36:00;;;;;;;11.20;5.85;;;8.50;99.90;;;;;;10318484;28;20432;-62
2021/03/26 03:41:07;;;;;;;14.75;6.95;;;8.50;99.90;;;;;;10314095;28;20099;-62
2021/03/26 03:46:18;;;;;;;13.60;6.32;;;8.50;99.90;;;;;;10302356;28;20049;-62
2021/03/26 03:51:43;;;;;;;15.05;6.07;;;8.40;99.90;;;;;;10309949;28;20074;-62
2021/03/26 03:56:50;;;;;;;15.90;6.28;;;8.40;99.90;;;;;;10299226;28;20202;-62
2021/03/26 04:02:01;;;;;;;18.83;6.45;;;8.40;99.90;;;;;;10321441;28;20175;-61
2021/03/26 04:07:31;;;;;;;15.68;6.20;;;8.30;99.90;;;;;;10304716;28;20107;-62
2021/03/26 04:12:37;;;;;;;15.18;5.75;;;8.30;99.90;;;;;;10246622;28;20392;-62
2021/03/26 04:18:06;;;;;;;11.80;5.72;;;8.20;99.90;;;;;;10314584;28;20142;-62
2021/03/26 04:23:17;;;;;;;15.18;6.55;;;8.30;99.90;;;;;;10261572;28;20054;-62
2021/03/26 04:28:28;;;;;;;13.98;6.20;;;8.20;99.90;;;;;;10303622;28;20049;-62
2021/03/26 04:33:29;;;;;;;17.75;6.15;;;8.20;99.90;;;;;;10311038;28;20134;-61
2021/03/26 04:38:39;;;;;;;13.90;5.85;;;8.20;99.90;;;;;;10308397;28;20117;-61
2021/03/26 04:43:55;;;;;;;12.75;5.13;;;8.20;99.90;;;;;;10315488;28;20045;-61
2021/03/26 04:49:20;;;;;;;17.15;6.13;;;8.20;99.90;;;;;;10257648;28;20065;-62
2021/03/26 04:55:01;;;;;;;11.43;6.18;;;8.10;99.90;;;;;;10314857;28;20058;-61
2021/03/26 05:00:33;;;;;;;15.40;6.82;;;8.00;99.90;;;;;;10250466;28;23881;-62
2021/03/26 05:05:40;;;;;;;14.88;6.85;;;7.90;99.90;;;;;;10266180;28;20046;-62
2021/03/26 05:10:41;;;;;;;13.63;5.93;;;7.90;99.90;;;;;;10321013;28;20047;-62
2021/03/26 05:15:52;;;;;;;12.68;6.88;;;7.90;99.90;;;;;;10315809;28;20125;-61
2021/03/26 05:21:08;;;;;;;18.02;6.70;;;8.00;99.90;;;;;;10301733;28;20830;-61
2021/03/26 05:26:10;;;;;;;15.95;6.72;;;8.00;99.90;;;;;;10310659;28;20058;-61
2021/03/26 05:31:47;;;;;;;16.02;7.60;;;8.00;99.90;;;;;;10316792;28;20748;-61
2021/03/26 05:37:18;;;;;;;16.02;7.38;;;8.00;99.90;;;;;;10253507;28;20101;-61
2021/03/26 05:42:56;;;;;;;16.80;7.15;;;8.00;99.90;;;;;;10293881;28;20058;-61
2021/03/26 05:48:18;;;;;;;15.13;7.87;;;8.00;99.90;;;;;;10218483;28;20051;-61
2021/03/26 05:53:37;;;;;;;17.38;8.55;;;8.00;99.90;;;;;;10314272;28;20078;-61
2021/03/26 05:58:44;;;;;;;20.65;7.32;;;8.10;99.90;;;;;;10315456;28;20077;-61
2021/03/26 06:04:13;;;;;;;21.20;8.47;;;8.00;99.90;;;;;;10306682;28;20735;-61
2021/03/26 06:09:31;;;;;;;15.52;7.53;;;8.10;99.90;;;;;;10319749;28;20050;-61
2021/03/26 06:15:18;;;;;;;16.63;8.98;;;8.20;99.90;;;;;;10313786;28;20081;-61
2021/03/26 06:20:43;;;;;;;16.88;7.80;;;8.30;99.90;;;;;;10247086;28;20123;-63
2021/03/26 06:26:11;;;;;;;16.73;9.15;;;8.40;99.90;;;;;;10306533;28;20053;-62
2021/03/26 06:31:21;;;;;;;;;;;8.40;99.90;;;;;;10298294;28;20061;-62
2021/03/26 06:37:16;;;;;;;18.35;8.23;;;8.50;99.90;;;;;;10253972;28;19922;-62
2021/03/26 06:42:43;;;;;;;20.27;10.35;;;8.60;99.90;;;;;;10224778;28;20527;-61
2021/03/26 06:48:08;;;;;;;18.43;9.53;;;8.70;99.90;;;;;;10327203;28;20050;-62
2021/03/26 06:53:34;;;;;;;18.73;8.73;;;8.80;99.90;;;;;;10298153;28;20529;-59
2021/03/26 06:58:44;;;;;;;20.17;9.32;;;8.80;99.90;;;;;;10281276;28;20054;-63
2021/03/26 07:04:24;;;;;;;20.85;10.30;;;8.90;99.90;;;;;;10305672;28;20461;-62
2021/03/26 07:09:50;;;;;;;18.83;9.57;;;8.80;99.90;;;;;;10252410;28;20482;-62
2021/03/26 07:15:00;;;;;;;23.42;10.13;;;8.70;99.90;;;;;;10298227;28;20129;-62
2021/03/26 07:20:20;;;;;;;20.33;9.23;;;8.80;99.90;;;;;;10301205;28;20377;-62
2021/03/26 07:26:05;;;;;;;21.48;10.25;;;8.80;99.90;;;;;;10302290;28;20048;-62
2021/03/26 07:31:44;;;;;;;23.23;10.93;;;8.80;99.90;;;;;;10237866;28;20061;-62
2021/03/26 07:37:00;;;;;;;27.08;11.43;;;8.80;99.90;;;;;;10245987;28;20133;-61
2021/03/26 07:42:04;;;;;;;25.92;11.70;;;8.90;99.90;;;;;;10293696;28;20039;-62
2021/03/26 07:47:05;;;;;;;20.60;10.88;;;9.00;99.90;;;;;;10291116;28;20050;-62
2021/03/26 07:52:26;;;;;;;26.90;11.95;;;9.10;99.90;;;;;;10297935;28;20053;-61
2021/03/26 07:58:04;;;;;;;24.58;12.05;;;9.30;99.90;;;;;;10234271;28;20050;-61
2021/03/26 08:03:12;;;;;;;23.38;11.45;;;9.50;99.90;;;;;;10263171;28;20066;-61
2021/03/26 08:08:53;;;;;;;24.10;11.48;;;9.70;99.90;;;;;;10313316;28;20133;-61
2021/03/26 08:13:57;;;;;;;22.83;12.95;;;9.70;99.90;;;;;;10216978;28;20457;-61
2021/03/26 08:19:20;;;;;;;22.70;12.70;;;9.90;99.90;;;;;;10302234;28;20047;-61
2021/03/26 08:24:42;;;;;;;22.90;12.57;;;10.10;99.90;;;;;;10297584;28;20065;-61
2021/03/26 08:30:05;;;;;;;25.33;13.20;;;10.20;99.90;;;;;;10311464;28;20477;-61
2021/03/26 08:35:27;;;;;;;23.77;11.85;;;10.40;99.90;;;;;;10295399;28;20658;-62
2021/03/26 08:41:00;;;;;;;24.75;12.20;;;10.60;99.90;;;;;;10241494;28;20042;-61
2021/03/26 08:46:17;;;;;;;23.10;13.40;;;10.90;98.60;;;;;;10265891;28;20477;-61
2021/03/26 08:51:36;;;;;;;24.60;12.05;;;11.30;96.80;;;;;;10177846;28;20047;-61
2021/03/26 08:56:55;;;;;;;23.08;11.82;;;11.60;95.00;;;;;;10308853;28;20061;-62
2021/03/26 09:02:24;;;;;;;24.50;12.55;;;12.00;93.90;;;;;;10251978;28;20223;-61
2021/03/26 09:08:03;;;;;;;28.20;12.68;;;12.70;91.80;;;;;;10266140;28;20429;-61
2021/03/26 09:13:23;;;;;;;24.95;13.20;;;12.30;91.40;;;;;;10271314;28;20156;-62
2021/03/26 09:18:49;;;;;;;24.02;13.30;;;12.30;90.90;;;;;;10246460;28;20061;-62
2021/03/26 09:24:23;;;;;;;26.52;13.07;;;12.50;90.30;;;;;;10317668;28;20057;-59
2021/03/26 09:29:41;;;;;;;19.42;12.23;;;12.50;90.20;;;;;;10257051;28;20207;-62
2021/03/26 09:35:00;;;;;;;24.60;12.07;;;12.40;90.00;;;;;;10323401;28;20104;-60
2021/03/26 09:40:20;;;;;;;23.48;12.15;;;12.60;90.10;;;;;;10265122;28;20053;-62
2021/03/26 09:45:29;;;;;;;18.92;11.45;;;12.80;89.80;;;;;;10309770;28;20085;-59
2021/03/26 09:51:06;;;;;;;22.38;11.52;;;13.10;85.30;;;;;;10318209;28;20539;-60
2021/03/26 09:56:37;;;;;;;21.20;11.10;;;13.10;85.30;;;;;;10238210;28;20073;-61
2021/03/26 10:01:48;;;;;;;20.85;10.00;;;13.20;83.90;;;;;;10246095;28;20064;-61
2021/03/26 10:07:25;;;;;;;18.45;10.35;;;13.60;81.10;;;;;;10306023;28;20050;-61
2021/03/26 10:12:37;;;;;;;21.10;10.80;;;13.70;80.50;;;;;;10262249;28;20058;-61
2021/03/26 10:17:41;;;;;;;17.58;10.82;;;14.00;78.50;;;;;;10301326;28;20046;-61
2021/03/26 10:23:02;;;;;;;15.82;9.85;;;14.90;76.30;;;;;;10319259;28;20045;-61
2021/03/26 10:28:16;;;;;;;18.00;10.15;;;15.00;73.50;;;;;;10215186;28;20046;-61
2021/03/26 10:33:21;;;;;;;21.35;10.82;;;14.20;75.70;;;;;;10311192;28;20050;-61
2021/03/26 10:38:47;;;;;;;13.70;7.78;;;15.10;73.60;;;;;;10297377;28;20064;-62
2021/03/26 10:44:09;;;;;;;12.18;7.47;;;14.60;72.90;;;;;;10291721;28;20050;-61
2021/03/26 10:49:15;;;;;;;16.38;9.90;;;15.70;67.90;;;;;;10303932;28;20505;-62
2021/03/26 10:54:29;;;;;;;14.65;8.02;;;16.50;67.50;;;;;;10309918;28;20058;-62
2021/03/26 10:59:39;;;;;;;13.70;6.70;;;17.30;63.80;;;;;;10306614;28;20061;-62
2021/03/26 11:04:44;;;;;;;8.82;6.55;;;17.80;61.60;;;;;;10304684;28;20057;-64
2021/03/26 11:10:01;;;;;;;10.52;5.40;;;16.10;62.20;;;;;;10232022;28;20046;-64
2021/03/26 11:15:21;;;;;;;9.15;5.82;;;15.20;63.70;;;;;;10304659;28;20201;-64
2021/03/26 11:20:32;;;;;;;9.45;4.20;;;14.70;65.60;;;;;;10312260;28;20050;-62
2021/03/26 11:25:36;;;;;;;8.80;4.65;;;17.40;60.90;;;;;;10318443;28;22545;-65
2021/03/26 11:31:22;;;;;;;6.30;3.72;;;17.50;57.20;;;;;;10310227;28;20046;-64
2021/03/26 11:36:40;;;;;;;8.50;5.78;;;18.90;54.10;;;;;;10231340;28;20057;-62
2021/03/26 11:42:07;;;;;;;9.82;4.68;;;17.70;55.10;;;;;;10309324;28;20593;-62
2021/03/26 11:47:26;;;;;;;7.88;5.25;;;17.80;56.40;;;;;;10255436;28;20053;-63
2021/03/26 11:52:35;;;;;;;11.02;5.32;;;18.80;54.00;;;;;;10307479;28;20053;-62
2021/03/26 11:57:51;;;;;;;8.50;4.72;;;20.20;53.30;;;;;;10309399;28;20050;-62
2021/03/26 12:02:52;;;;;;;7.47;4.75;;;19.80;50.40;;;;;;10311609;28;20054;-62
2021/03/26 12:08:24;;;;;;;8.00;5.05;;;20.90;48.80;;;;;;10296297;28;20055;-63
2021/03/26 12:13:36;;;;;;;10.45;6.70;;;17.90;53.30;;;;;;10250569;28;20089;-63
2021/03/26 12:19:00;;;;;;;12.75;8.45;;;18.50;55.00;;;;;;10297266;28;20055;-62
2021/03/26 12:24:26;;;;;;;14.52;8.77;;;17.00;58.40;;;;;;10234748;28;20393;-62
2021/03/26 12:29:49;;;;;;;7.95;5.53;;;17.20;60.80;;;;;;10257212;28;20054;-62
2021/03/26 12:35:12;;;;;;;11.77;6.53;;;18.90;53.50;;;;;;10299188;28;20485;-62
2021/03/26 12:40:43;;;;;;;9.25;6.13;;;17.90;54.50;;;;;;10324309;28;20104;-61
2021/03/26 12:45:59;;;;;;;8.98;6.25;;;17.90;55.20;;;;;;10303222;28;20548;-61
2021/03/26 12:51:19;;;;;;;11.85;6.78;;;18.50;53.60;;;;;;10316827;28;20037;-62
2021/03/26 12:56:40;;;;;;;13.93;7.00;;;18.60;53.70;;;;;;10306975;28;20054;-62
2021/03/26 13:01:53;;;;;;;10.85;5.82;;;19.80;52.30;;;;;;10312376;28;20535;-62
2021/03/26 13:07:38;;;;;;;9.52;6.20;;;19.80;51.90;;;;;;10246049;28;20068;-61
2021/03/26 13:12:43;;;;;;;7.38;5.32;;;19.00;51.80;;;;;;10257774;28;20188;-61
2021/03/26 13:17:45;;;;;;;13.87;6.13;;;21.00;48.90;;;;;;10312718;28;20046;-61
2021/03/26 13:23:00;;;;;;;9.70;5.78;;;21.30;48.70;;;;;;10316940;28;20076;-61
2021/03/26 13:28:07;;;;;;;8.25;5.38;;;20.80;49.00;;;;;;10313794;28;20057;-61
2021/03/26 13:33:10;;;;;;;7.45;4.57;;;20.20;48.10;;;;;;10296715;28;20485;-62
2021/03/26 13:38:34;;;;;;;8.55;4.93;;;20.60;50.00;;;;;;10307729;28;20060;-63
2021/03/26 13:43:40;;;;;;;5.90;4.80;;;21.90;47.90;;;;;;10266906;28;20565;-63
2021/03/26 13:48:42;;;;;;;7.43;4.40;;;20.20;46.60;;;;;;10308594;28;20090;-63
2021/03/26 13:54:37;;;;;;;7.55;4.78;;;19.00;49.20;;;;;;10297175;28;20112;-63
2021/03/26 13:59:46;;;;;;;7.32;4.43;;;17.90;53.40;;;;;;10264402;28;20065;-62
2021/03/26 14:05:21;;;;;;;8.65;4.07;;;19.00;54.20;;;;;;10309602;28;20062;-60
2021/03/26 14:10:50;;;;;;;8.77;3.40;;;18.90;51.40;;;;;;10277320;28;20058;-59
2021/03/26 14:16:10;;;;;;;7.80;3.47;;;19.10;49.30;;;;;;10310709;28;20081;-60
2021/03/26 14:21:20;;;;;;;7.72;3.60;;;19.00;50.50;;;;;;10308405;28;20050;-60
2021/03/26 14:26:27;;;;;;;9.15;5.00;;;18.30;50.50;;;;;;10299150;28;20050;-62
2021/03/26 14:31:43;;;;;;;6.57;3.17;;;18.30;51.00;;;;;;10316021;28;20054;-60
2021/03/26 14:36:54;;;;;;;3.88;2.63;;;18.60;50.90;;;;;;10301287;28;20388;-60
2021/03/26 14:42:19;;;;;;;6.28;3.45;;;19.70;50.20;;;;;;10305932;28;20590;-60
2021/03/26 14:47:23;;;;;;;5.78;4.13;;;18.90;50.90;;;;;;10307228;28;20120;-60
2021/03/26 14:52:47;;;;;;;8.80;3.90;;;17.70;52.40;;;;;;10306305;28;20135;-60
2021/03/26 14:58:08;;;;;;;9.27;4.05;;;18.00;52.10;;;;;;10300870;28;20121;-60
2021/03/26 15:03:21;;;;;;;12.30;3.88;;;18.00;52.20;;;;;;10302118;28;20459;-60
2021/03/26 15:09:10;;;;;;;6.00;3.38;;;19.10;51.80;;;;;;10304077;28;20131;-60
2021/03/26 15:14:14;;;;;;;;;;;18.30;51.60;;;;;;10235964;28;20170;-60
2021/03/26 15:19:20;;;;;;;6.10;3.15;;;18.20;51.50;;;;;;10301504;28;19929;-60
2021/03/26 15:24:56;;;;;;;6.20;3.25;;;17.50;52.50;;;;;;10290229;28;20523;-60
2021/03/26 15:30:29;;;;;;;7.47;3.33;;;17.20;53.80;;;;;;10229720;28;20042;-60
2021/03/26 15:35:39;;;;;;;6.63;3.30;;;17.20;53.30;;;;;;10288974;28;20058;-60
2021/03/26 15:41:14;;;;;;;10.00;4.03;;;17.30;54.70;;;;;;10305219;28;20053;-60
2021/03/26 15:46:38;;;;;;;7.55;3.83;;;17.30;56.30;;;;;;10246185;28;20168;-60
2021/03/26 15:51:53;;;;;;;6.53;3.70;;;16.90;55.70;;;;;;10303777;28;20068;-60
2021/03/26 15:57:11;;;;;;;7.05;4.15;;;17.10;55.40;;;;;;10258702;28;20145;-60
2021/03/26 16:02:31;;;;;;;7.68;4.47;;;17.10;54.90;;;;;;10310764;28;20042;-61
2021/03/26 16:07:57;;;;;;;8.35;3.90;;;16.90;55.30;;;;;;10259223;28;20077;-61
2021/03/26 16:13:25;;;;;;;8.45;4.15;;;17.40;56.50;;;;;;10257481;28;20047;-60
2021/03/26 16:18:28;;;;;;;5.00;3.33;;;17.30;55.30;;;;;;10278714;28;20054;-61
2021/03/26 16:24:03;;;;;;;5.93;3.42;;;17.20;55.00;;;;;;10312938;28;20489;-62
2021/03/26 16:29:28;;;;;;;7.40;2.92;;;16.90;55.30;;;;;;10262073;28;20081;-62
2021/03/26 16:35:13;;;;;;;3.75;2.75;;;16.80;55.80;;;;;;10258740;28;20121;-62
2021/03/26 16:40:47;;;;;;;9.32;3.50;;;16.40;56.00;;;;;;10263376;28;20050;-63
2021/03/26 16:46:18;;;;;;;6.68;3.50;;;16.10;56.40;;;;;;10305676;28;20337;-62
2021/03/26 16:51:22;;;;;;;6.72;3.55;;;16.00;57.10;;;;;;10300871;28;20062;-62
2021/03/26 16:56:41;;;;;;;7.80;3.85;;;16.00;57.50;;;;;;10306705;28;20547;-62
2021/03/26 17:02:18;;;;;;;8.73;4.03;;;15.90;57.70;;;;;;10287583;28;20511;-61
2021/03/26 17:07:55;;;;;;;6.23;3.60;;;15.80;57.80;;;;;;10247422;28;20050;-62
2021/03/26 17:13:37;;;;;;;8.35;3.92;;;15.70;58.30;;;;;;10232943;28;20042;-66
2021/03/26 17:19:24;;;;;;;8.68;3.72;;;15.50;58.70;;;;;;10263206;28;20042;-66
2021/03/26 17:24:44;;;;;;;9.15;4.25;;;15.40;59.20;;;;;;10231645;28;20049;-67
2021/03/26 17:30:04;;;;;;;8.02;3.90;;;15.40;59.70;;;;;;10307371;28;20109;-66
2021/03/26 17:35:42;;;;;;;6.72;3.15;;;15.30;59.30;;;;;;10301108;28;20136;-66
2021/03/26 17:41:09;;;;;;;8.27;3.90;;;15.30;59.80;;;;;;10262261;28;20132;-67
2021/03/26 17:46:14;;;;;;;10.53;4.57;;;15.20;59.10;;;;;;10275905;28;20058;-62
2021/03/26 17:51:48;;;;;;;9.07;4.18;;;15.20;59.50;;;;;;10299437;28;21307;-61
2021/03/26 17:57:27;;;;;;;7.68;2.70;;;15.10;59.70;;;;;;10316962;28;20456;-61
2021/03/26 18:03:05;;;;;;;6.15;2.72;;;15.00;60.00;;;;;;10220377;28;20105;-61
2021/03/26 18:08:27;;;;;;;7.50;2.50;;;14.90;60.30;;;;;;10227317;28;20037;-61
2021/03/26 18:14:04;;;;;;;10.30;4.13;;;14.80;60.60;;;;;;10231713;28;20124;-60
2021/03/26 18:19:17;;;;;;;7.65;3.42;;;14.70;61.00;;;;;;10264977;28;20108;-61
2021/03/26 18:24:52;;;;;;;7.15;3.72;;;14.60;61.50;;;;;;10307600;28;20050;-61
2021/03/26 18:30:24;;;;;;;6.88;3.22;;;14.50;62.80;;;;;;10303149;28;20132;-60
2021/03/26 18:35:35;;;;;;;7.97;3.50;;;14.50;62.50;;;;;;10235642;28;20057;-61
2021/03/26 18:40:52;;;;;;;6.57;2.88;;;14.50;62.50;;;;;;10303253;28;20046;-61
2021/03/26 18:46:12;;;;;;;5.43;3.10;;;14.40;62.80;;;;;;10317706;28;20108;-61
2021/03/26 18:51:27;;;;;;;7.72;2.72;;;14.40;63.30;;;;;;10315026;28;20038;-61
2021/03/26 18:56:45;;;;;;;7.88;3.53;;;14.40;63.80;;;;;;10251632;28;20062;-61
2021/03/26 19:02:26;;;;;;;9.52;3.97;;;14.40;63.90;;;;;;10309424;28;20050;-61
2021/03/26 19:07:35;;;;;;;6.32;3.55;;;14.40;63.90;;;;;;10262832;28;20050;-61
2021/03/26 19:13:01;;;;;;;7.50;3.35;;;14.40;64.20;;;;;;10308300;28;20053;-61
2021/03/26 19:18:10;;;;;;;7.68;3.30;;;14.30;64.80;;;;;;10232733;28;20100;-61
2021/03/26 19:23:21;;;;;;;8.40;3.40;;;14.20;65.20;;;;;;10309770;28;20511;-61
2021/03/26 19:28:49;;;;;;;11.43;4.47;;;14.10;65.70;;;;;;10310543;28;20057;-61
2021/03/26 19:34:07;;;;;;;;;;;14.10;65.70;;;;;;10302244;28;20073;-61
2021/03/26 19:39:18;;;;;;;11.57;3.15;;;14.00;66.50;;;;;;10295435;28;19960;-61
2021/03/26 19:44:47;;;;;;;10.40;4.03;;;13.90;66.50;;;;;;10298226;28;20661;-61
2021/03/26 19:50:22;;;;;;;8.75;3.35;;;13.80;66.50;;;;;;10306783;28;20046;-61
2021/03/26 19:55:42;;;;;;;5.50;3.20;;;13.80;67.40;;;;;;10303719;28;20062;-61
2021/03/26 20:00:58;;;;;;;7.13;2.58;;;13.70;67.70;;;;;;10303120;28;20555;-61
2021/03/26 20:06:12;;;;;;;7.72;2.97;;;13.50;68.30;;;;;;10234889;28;20168;-60
2021/03/26 20:11:41;;;;;;;13.48;3.20;;;13.40;68.70;;;;;;10317694;28;20046;-61
2021/03/26 20:17:18;;;;;;;7.78;2.55;;;13.20;69.30;;;;;;10250826;28;20058;-61
2021/03/26 20:22:43;;;;;;;9.55;3.67;;;13.10;69.80;;;;;;10310825;28;20046;-61
2021/03/26 20:27:53;;;;;;;7.85;3.17;;;12.90;71.50;;;;;;10305994;28;20078;-61
2021/03/26 20:33:01;;;;;;;5.72;3.58;;;12.60;72.20;;;;;;10205407;28;20090;-61
2021/03/26 20:38:28;;;;;;;7.57;3.70;;;12.50;73.90;;;;;;10291113;28;20075;-62
2021/03/26 20:43:35;;;;;;;8.43;4.00;;;12.20;76.50;;;;;;10252767;28;20104;-62
2021/03/26 20:48:58;;;;;;;7.07;4.90;;;12.20;76.80;;;;;;10304237;28;20066;-63
2021/03/26 20:54:37;;;;;;;15.82;4.85;;;12.00;78.00;;;;;;10244384;28;20599;-62
2021/03/26 20:59:53;;;;;;;10.48;4.85;;;11.80;79.50;;;;;;10232201;28;20133;-63
2021/03/26 21:04:56;;;;;;;7.90;4.72;;;11.70;80.30;;;;;;10232206;28;20412;-62
2021/03/26 21:10:05;;;;;;;10.40;4.95;;;11.50;80.90;;;;;;10307938;28;20050;-62
2021/03/26 21:15:15;;;;;;;13.50;5.68;;;11.40;82.10;;;;;;10320967;28;20116;-62
2021/03/26 21:20:28;;;;;;;11.50;5.30;;;11.30;82.90;;;;;;10313757;28;20057;-62
2021/03/26 21:25:48;;;;;;;9.80;5.63;;;11.20;83.90;;;;;;10306089;28;20050;-62
2021/03/26 21:31:19;;;;;;;12.48;6.18;;;11.10;85.00;;;;;;10290997;28;20460;-62
2021/03/26 21:36:39;;;;;;;15.15;8.02;;;11.00;86.10;;;;;;10308447;28;20048;-61
2021/03/26 21:41:42;;;;;;;12.70;5.55;;;10.90;88.10;;;;;;10306057;28;20133;-62
2021/03/26 21:47:01;;;;;;;11.88;5.35;;;10.80;90.30;;;;;;10336715;28;20054;-62
2021/03/26 21:52:11;;;;;;;14.30;5.40;;;10.80;91.00;;;;;;10250866;28;20042;-62
2021/03/26 21:57:13;;;;;;;10.35;5.65;;;10.70;92.40;;;;;;10320160;28;20128;-61
2021/03/26 22:02:58;;;;;;;11.90;5.70;;;10.80;92.20;;;;;;10318402;28;20073;-62
2021/03/26 22:08:26;;;;;;;24.95;8.73;;;10.70;91.90;;;;;;10216620;28;20073;-61
2021/03/26 22:13:57;;;;;;;26.75;11.13;;;10.70;92.50;;;;;;10223092;28;20497;-63
2021/03/26 22:19:05;;;;;;;20.30;8.52;;;10.70;92.50;;;;;;10245852;28;20057;-64
2021/03/26 22:24:09;;;;;;;13.52;6.45;;;10.70;93.50;;;;;;10316290;28;20049;-65
2021/03/26 22:29:24;;;;;;;10.43;6.45;;;10.70;93.80;;;;;;10323393;28;20543;-61
2021/03/26 22:34:45;;;;;;;13.25;6.65;;;10.50;93.50;;;;;;10255344;28;20078;-62
2021/03/26 22:39:49;;;;;;;13.68;7.38;;;10.30;94.50;;;;;;10318113;28;20042;-62
2021/03/26 22:44:53;;;;;;;12.77;7.18;;;10.20;95.30;;;;;;10313953;28;20046;-63
2021/03/26 22:50:18;;;;;;;11.95;6.63;;;10.00;96.30;;;;;;10317605;28;20049;-63
2021/03/26 22:55:35;;;;;;;10.70;7.05;;;9.80;97.50;;;;;;10319391;28;20104;-62
2021/03/26 23:00:43;;;;;;;15.30;7.22;;;9.60;99.50;;;;;;10313882;28;20046;-62
2021/03/26 23:05:47;;;;;;;11.85;6.15;;;9.40;99.90;;;;;;10305719;28;20050;-61
2021/03/26 23:11:08;;;;;;;10.25;6.30;;;9.20;99.90;;;;;;10310637;28;20112;-61
2021/03/26 23:16:26;;;;;;;12.40;7.90;;;9.10;99.90;;;;;;10302259;28;20058;-62
2021/03/26 23:21:28;;;;;;;13.20;6.60;;;8.90;99.90;;;;;;10250016;28;20050;-62
2021/03/26 23:26:33;;;;;;;15.07;7.40;;;8.80;99.90;;;;;;10305307;28;20097;-62
2021/03/26 23:31:39;;;;;;;13.23;6.53;;;8.70;99.90;;;;;;10318086;28;20132;-62
2021/03/26 23:36:50;;;;;;;10.52;5.47;;;8.60;99.90;;;;;;10304135;28;20057;-62
2021/03/26 23:41:59;;;;;;;10.75;5.22;;;8.40;99.90;;;;;;10306562;28;20070;-61
2021/03/26 23:47:12;;;;;;;9.57;4.97;;;8.30;99.90;;;;;;10322833;28;20050;-61
2021/03/26 23:52:21;;;;;;;11.70;5.93;;;8.30;99.90;;;;;;10308442;28;20060;-61
2021/03/26 23:57:24;;;;;;;10.48;5.20;;;8.10;99.90;;;;;;10316097;28;20042;-61
